Airfield :
LOGIN :

Register | Disclaimer

   EN    FR    IT 

 










Legend :    VFR   Marginal VFR   IFR   Intensive IFR   Very Intensive IFR
Visi :
Ceiling :
>= 8 km
>= 3000ft
5 to 8 km
1000 to 3000 ft
1500m to 5 km
500 to 1000 ft
800 to 1500m
200 to 500 ft
< 800m
< 200 ft
Symbols :   Thunderstorms  Fog  Heavy snow  Heavy precipitations  Wind > 20 kt
SIGMETs :     Misc.  Thunderstorms  Icing  Turbulence  Mountain Waves  Volcanic Ashes






- Airport Elevation : 249 ft


EGOS - RAF Shawbury

CURRENT METAR :
  • 241250Z 22005KT 9999 FEW007 SCT015 BKN023 06/05 Q1022 TEMPO BKN025 RMK WHT TEMPO BLU

EXPIRED METARs :
  • 241220Z 23005KT 9999 FEW007 SCT015 BKN023 06/05 Q1022 TEMPO FEW015 BKN025 RMK WHT TEMPO BLU
  • 241150Z 25006KT 9999 FEW005 BKN014 OVC025 06/05 Q1022 NOSIG RMK GRN GRN
  • 241120Z 26006KT 9999 FEW005 BKN014 BKN024 06/05 Q1023 TEMPO BKN024 RMK GRN TEMPO WHT
  • 241050Z 25008KT 9999 FEW005 BKN016 06/05 Q1023 NOSIG RMK WHT WHT
  • 241020Z 24009KT 9999 FEW005 SCT020 BKN026 05/05 Q1023 BECMG FEW020 BKN026 RMK WHT BECMG BLU

TAF TAF EGOS
Valid from the 24 at 12:00 until the 24 at 18:00 UTC


241049Z 2412/2418 26008KT 9999 BKN018
TEMPO 2412/2418 BKN025
PROB40
TEMPO 2412/2417 SCT012



MET'MAP, your aeronautical weather chart ! - Copyright ORBIFLY December 2007 - Disclaimer

ORBIFLY MET'MAP TEAM :

Programming & Development : Alexandra Zaïnal
Concept & original design : Baudouin d'Aumeries
Assistance for programming : Marc-Olivier Méhu
Technical & hardware support : Manuel Goepfert

Contact : metmap@orbifly.com




SOURCES & CREDITS :

   NOAA